Cinnaminson, New Jersey
Current Conditions -  °F | °C
As of 10:54 PM on Thursday 27 Nov 2014 (Local Time) from KPNE Reporting Station
Clear Clear  
Wind Chill: 26°   Ceiling: Unl
Heat Index: 32°   Visibility: 10mi
Dew Point: 23°   Wind: 6mph
Humidity: 69%   Direction: 290°WNW
Pressure: 30.13"   Gusts: NA
Location:  40°N, 74.99°W
Report Text: KPNE 280354Z AUTO 29005KT 10SM CLR 00/M05 A3013 RMK AO2 SLP202 T00001050 TSNO
Loading
Personal Weather Stations






























Interactive Weather Map New forecast layout! Learn more

10-Day Weather Forecast

Advertisements
Track Severe Weather on mobile